Time;durP1;ratioP1;P1;durP2;ratioP2;P2;SDS_P1;SDS_P2;PMS_P1;PMS_P2;Temp;Humidity;BMP_temperature;BMP_pressure;BME280_temperature;BME280_humidity;BME280_pressure;Samples;Min_cycle;Max_cycle;Signal;HPM_P1;HPM_P2
2022/01/11 00:01:26;;;;;;;35.63;12.45;;;-1.80;99.90;;;-3.00;100.00;98846.13;4978150;28;20053;-69
2022/01/11 00:03:54;;;;;;;49.42;17.17;;;-1.80;99.90;;;-3.10;100.00;98839.06;4972067;28;20038;-69
2022/01/11 00:06:33;;;;;;;63.20;22.90;;;-1.80;99.90;;;-3.15;100.00;98845.66;4978611;28;20112;-69
2022/01/11 00:09:06;;;;;;;68.50;23.48;;;-1.80;99.90;;;-3.20;100.00;98837.88;4973116;28;20047;-69
2022/01/11 00:11:35;;;;;;;59.47;25.05;;;-1.90;99.90;;;-3.16;100.00;98843.94;4975159;28;20046;-69
2022/01/11 00:14:03;;;;;;;45.45;17.70;;;-1.90;99.90;;;-3.27;100.00;98843.56;4982098;28;20055;-69
2022/01/11 00:16:30;;;;;;;51.67;21.23;;;-2.00;99.90;;;-3.27;100.00;98841.03;4977510;28;20133;-69
2022/01/11 00:19:01;;;;;;;55.17;23.27;;;-2.10;99.90;;;-3.32;100.00;98839.19;4975628;28;20054;-69
2022/01/11 00:21:29;;;;;;;42.05;18.10;;;-2.20;99.90;;;-3.40;100.00;98842.34;4975638;28;20051;-69
2022/01/11 00:26:42;;;;;;;55.25;23.73;;;-2.20;99.90;;;-3.25;100.00;98843.63;4977491;28;20050;-69
2022/01/11 00:29:10;;;;;;;64.30;27.10;;;-2.10;99.90;;;-3.30;100.00;98846.03;4981343;28;20054;-69
2022/01/11 00:31:37;;;;;;;60.90;27.67;;;-2.10;99.90;;;-3.32;100.00;98844.25;4977415;28;20050;-70
2022/01/11 00:34:07;;;;;;;74.45;29.42;;;-2.10;99.90;;;-3.38;100.00;98842.38;4978050;28;20526;-70
2022/01/11 00:36:42;;;;;;;50.53;21.40;;;-2.20;99.90;;;-3.44;100.00;98843.03;4972037;28;20054;-68
2022/01/11 00:39:11;;;;;;;62.42;26.48;;;-2.20;99.90;;;-3.48;100.00;98842.88;4975523;28;20097;-70
2022/01/11 00:41:41;;;;;;;50.15;22.55;;;-2.30;99.90;;;-3.48;100.00;98840.34;4978141;28;20121;-69
2022/01/11 00:44:10;;;;;;;44.28;18.52;;;-2.30;99.90;;;-3.57;100.00;98844.28;4973729;28;20050;-69
2022/01/11 00:46:40;;;;;;;38.72;16.95;;;-2.30;99.90;;;-3.58;100.00;98851.84;4974325;28;20047;-70
2022/01/11 00:49:08;;;;;;;44.47;19.67;;;-2.30;99.90;;;-3.48;100.00;98847.97;4975245;28;20046;-70
2022/01/11 00:51:36;;;;;;;39.08;17.50;;;-2.30;99.90;;;-3.54;100.00;98852.81;4978129;28;20261;-69
2022/01/11 00:54:03;;;;;;;49.67;22.52;;;-2.30;99.90;;;-3.52;100.00;98854.59;4974363;28;20058;-69
2022/01/11 00:56:31;;;;;;;59.97;23.95;;;-2.30;99.90;;;-3.53;100.00;98850.34;4973753;28;20077;-68
2022/01/11 00:58:59;;;;;;;50.30;21.77;;;-2.20;99.90;;;-3.51;100.00;98851.25;4974600;28;20079;-69
2022/01/11 01:01:27;;;;;;;52.85;23.33;;;-2.30;99.90;;;-3.48;100.00;98846.28;4975344;28;20078;-70
2022/01/11 01:03:55;;;;;;;44.97;20.08;;;-2.30;99.90;;;-3.57;100.00;98851.91;4974138;28;20082;-69
2022/01/11 01:06:22;;;;;;;47.50;19.55;;;-2.30;99.90;;;-3.56;100.00;98850.22;4978182;28;20053;-71
2022/01/11 01:08:49;;;;;;;37.15;17.33;;;-2.40;99.90;;;-3.56;100.00;98855.31;4977926;28;20074;-70
2022/01/11 01:11:18;;;;;;;44.72;19.60;;;-2.40;99.90;;;-3.62;100.00;98857.66;4977257;28;20053;-70
2022/01/11 01:13:49;;;;;;;38.80;17.50;;;-2.40;99.90;;;-3.71;100.00;98857.34;4980682;28;20055;-69
2022/01/11 01:16:16;;;;;;;43.08;20.30;;;-2.40;99.90;;;-3.62;100.00;98865.25;4989333;28;20078;-70
2022/01/11 01:18:44;;;;;;;36.85;16.63;;;-2.50;99.90;;;-3.64;100.00;98866.88;4980900;28;20051;-69
2022/01/11 01:21:11;;;;;;;40.17;16.45;;;-2.40;99.90;;;-3.69;100.00;98868.41;4975609;28;20471;-69
2022/01/11 01:23:39;;;;;;;41.53;17.27;;;-2.40;99.90;;;-3.71;100.00;98862.41;4982269;28;20038;-70
2022/01/11 01:26:06;;;;;;;42.30;18.73;;;-2.50;99.90;;;-3.73;100.00;98869.97;4978569;28;20061;-70
2022/01/11 01:28:36;;;;;;;53.88;19.95;;;-2.50;99.90;;;-3.75;100.00;98875.78;4979117;28;20117;-69
2022/01/11 01:31:04;;;;;;;45.33;19.02;;;-2.50;99.90;;;-3.75;100.00;98880.88;4979336;28;20043;-69
2022/01/11 01:33:33;;;;;;;50.38;18.27;;;-2.50;99.90;;;-3.73;100.00;98880.09;4977104;28;20460;-69
2022/01/11 01:36:04;;;;;;;44.35;19.80;;;-2.60;99.90;;;-3.82;100.00;98882.31;4980182;28;20054;-70
2022/01/11 01:38:33;;;;;;;52.65;20.50;;;-2.60;99.90;;;-3.71;100.00;98891.19;4980963;28;20482;-69
2022/01/11 01:41:10;;;;;;;43.88;19.92;;;-2.60;99.90;;;-3.92;100.00;98887.88;4982086;28;20074;-69
2022/01/11 01:43:37;;;;;;;51.00;19.65;;;-2.60;99.90;;;-3.90;100.00;98886.25;4983414;28;20042;-70
2022/01/11 01:46:05;;;;;;;50.95;20.00;;;-2.80;99.90;;;-3.96;100.00;98880.97;4979899;28;20081;-69
2022/01/11 01:48:35;;;;;;;51.83;22.30;;;-2.80;99.90;;;-3.90;100.00;98882.06;4973891;28;20077;-69
2022/01/11 01:51:11;;;;;;;44.97;19.85;;;-2.80;99.90;;;-4.06;100.00;98890.78;4980370;28;20054;-69
2022/01/11 01:53:50;;;;;;;40.83;18.65;;;-2.80;99.90;;;-4.10;100.00;98890.63;4989708;28;20470;-69
2022/01/11 01:56:20;;;;;;;42.42;18.55;;;-2.80;99.90;;;-3.98;100.00;98900.34;4998467;28;20138;-69
2022/01/11 01:58:50;;;;;;;45.55;19.92;;;-2.80;99.90;;;-3.91;100.00;98894.69;4985243;28;20051;-70
2022/01/11 02:01:19;;;;;;;38.80;18.38;;;-2.80;99.90;;;-3.97;100.00;98897.00;4976719;28;20049;-69
2022/01/11 02:03:50;;;;;;;45.92;19.25;;;-2.80;99.90;;;-4.02;100.00;98895.16;4994802;28;20046;-69
2022/01/11 02:06:20;;;;;;;52.70;21.17;;;-2.80;99.90;;;-4.08;100.00;98886.44;4976548;28;20069;-70
2022/01/11 02:08:50;;;;;;;38.78;17.92;;;-2.80;99.90;;;-4.12;100.00;98894.78;4983237;28;20074;-70
2022/01/11 02:11:21;;;;;;;37.42;16.77;;;-2.80;99.90;;;-4.06;100.00;98892.44;4976354;28;20434;-69
2022/01/11 02:13:50;;;;;;;36.20;15.60;;;;;;;-4.17;100.00;98893.72;4991194;28;20141;-69
2022/01/11 02:16:22;;;;;;;46.83;17.48;;;-2.60;99.90;;;-3.95;100.00;98892.84;4973280;28;20142;-69
2022/01/11 02:18:52;;;;;;;37.67;16.67;;;-2.60;99.90;;;-4.02;100.00;98900.22;4990746;28;20522;-69
2022/01/11 02:21:20;;;;;;;48.47;18.85;;;-2.60;99.90;;;-4.01;100.00;98894.34;4973458;28;20467;-69
2022/01/11 02:23:50;;;;;;;54.92;21.52;;;-2.60;99.90;;;-4.02;100.00;98900.22;4988429;28;20517;-69
2022/01/11 02:26:18;;;;;;;40.67;17.95;;;-2.60;99.90;;;-4.07;100.00;98904.25;4995472;28;20141;-69
2022/01/11 02:28:46;;;;;;;48.55;20.60;;;-2.70;99.90;;;-4.11;100.00;98899.88;4978015;28;20085;-69
2022/01/11 02:31:18;;;;;;;45.90;21.00;;;-2.70;99.90;;;-4.16;100.00;98906.47;4977874;28;20053;-70
2022/01/11 02:33:51;;;;;;;62.70;24.92;;;-2.70;99.90;;;-4.12;100.00;98910.84;4976566;28;20145;-69
2022/01/11 02:36:24;;;;;;;51.13;22.90;;;-2.60;99.90;;;-4.06;100.00;98908.53;4997070;28;20124;-69
2022/01/11 02:38:54;;;;;;;48.92;21.38;;;-2.60;99.90;;;-4.03;100.00;98907.78;4994563;28;20104;-69
2022/01/11 02:41:27;;;;;;;39.95;18.23;;;-2.50;99.90;;;-4.04;100.00;98919.63;4993314;28;20455;-69
2022/01/11 02:43:56;;;;;;;49.35;20.70;;;-2.50;99.90;;;-3.90;100.00;98924.31;4973994;28;20520;-69
2022/01/11 02:46:24;;;;;;;49.08;18.98;;;-2.50;99.90;;;-3.60;100.00;98912.72;4979286;28;20072;-70
2022/01/11 02:48:56;;;;;;;39.15;17.75;;;-2.30;99.90;;;-3.72;100.00;98919.03;4978530;28;20043;-69
2022/01/11 02:51:25;;;;;;;38.85;17.85;;;-2.20;99.90;;;-3.83;100.00;98919.53;4976803;28;20146;-69
2022/01/11 02:53:55;;;;;;;37.35;17.00;;;-2.20;99.90;;;-4.04;100.00;98924.69;4977656;28;20050;-71
2022/01/11 02:56:23;;;;;;;32.30;13.60;;;-2.40;99.90;;;-4.14;100.00;98927.69;4987871;28;20081;-69
2022/01/11 02:58:55;;;;;;;26.95;13.23;;;-2.50;99.90;;;-4.07;100.00;98924.56;4991337;28;20055;-69
2022/01/11 03:01:23;;;;;;;29.33;12.65;;;-2.60;99.90;;;-4.11;100.00;98922.69;4971271;28;20484;-69
2022/01/11 03:03:51;;;;;;;27.55;12.07;;;-2.70;99.90;;;-4.09;100.00;98915.16;4997052;28;20046;-69
2022/01/11 03:06:19;;;;;;;37.53;14.98;;;-2.80;99.90;;;-4.12;100.00;98918.44;4973434;28;20049;-69
2022/01/11 03:08:47;;;;;;;35.17;14.43;;;-2.80;99.90;;;-4.15;100.00;98925.06;4992528;28;20450;-69
2022/01/11 03:11:18;;;;;;;32.50;15.23;;;-2.70;99.90;;;-4.04;100.00;98923.78;4989732;28;20420;-69
2022/01/11 03:13:49;;;;;;;30.90;12.55;;;-2.60;99.90;;;-4.09;100.00;98923.63;4976750;28;20143;-69
2022/01/11 03:16:19;;;;;;;30.85;11.10;;;-2.60;99.90;;;-4.04;100.00;98919.63;4974678;28;20363;-69
2022/01/11 03:18:47;;;;;;;29.42;13.30;;;-2.60;99.90;;;-3.99;100.00;98927.38;4974529;28;20134;-70
2022/01/11 03:21:18;;;;;;;27.33;12.45;;;-2.60;99.90;;;-4.09;100.00;98931.22;4991890;28;20189;-70
2022/01/11 03:23:47;;;;;;;33.03;12.48;;;-2.60;99.90;;;-4.11;100.00;98934.53;4973723;28;20381;-69
2022/01/11 03:26:15;;;;;;;27.70;11.07;;;-2.60;99.90;;;-4.08;100.00;98932.09;4977274;28;20078;-69
2022/01/11 03:28:46;;;;;;;29.90;12.15;;;-2.60;99.90;;;-3.97;100.00;98932.50;4970510;28;20094;-70
2022/01/11 03:31:16;;;;;;;21.75;9.02;;;-2.50;99.90;;;-3.93;100.00;98926.72;4992462;28;20042;-69
2022/01/11 03:33:43;;;;;;;23.40;11.13;;;-2.50;99.90;;;-4.06;100.00;98935.56;4982273;28;20051;-69
2022/01/11 03:36:11;;;;;;;22.10;10.77;;;-2.50;99.90;;;-3.99;100.00;98940.06;4973877;28;20050;-70
2022/01/11 03:38:38;;;;;;;28.08;10.65;;;-2.50;99.90;;;-4.06;100.00;98943.16;4983871;28;20050;-69
2022/01/11 03:41:05;;;;;;;19.00;8.77;;;-2.60;99.90;;;-4.03;100.00;98945.84;4974130;28;20051;-69
2022/01/11 03:43:39;;;;;;;16.17;8.45;;;-2.50;99.90;;;-4.00;100.00;98945.94;4975796;28;20130;-69
2022/01/11 03:46:08;;;;;;;25.00;11.13;;;-2.50;99.90;;;-3.97;100.00;98946.03;4974630;28;20054;-69
2022/01/11 03:48:36;;;;;;;24.35;10.02;;;-2.60;99.90;;;-3.95;100.00;98943.56;4975213;28;20513;-69
2022/01/11 03:51:05;;;;;;;31.42;11.73;;;;;;;-4.09;100.00;98946.44;4972493;28;20074;-69
2022/01/11 03:53:49;;;;;;;28.58;12.40;;;-2.70;99.90;;;-4.06;100.00;98938.09;4976463;28;20392;-70
2022/01/11 03:56:23;;;;;;;32.90;11.55;;;-2.60;99.90;;;-4.07;100.00;98951.59;4974251;28;20523;-69
2022/01/11 03:58:53;;;;;;;30.58;11.57;;;-2.70;99.90;;;-4.06;100.00;98958.38;4977831;28;20061;-69
2022/01/11 04:01:22;;;;;;;21.88;10.95;;;-2.50;99.90;;;-4.05;100.00;98960.97;4995122;28;20075;-70
2022/01/11 04:03:49;;;;;;;30.10;13.45;;;-2.50;99.90;;;-4.02;100.00;98963.63;4980322;28;20426;-69
2022/01/11 04:06:17;;;;;;;32.38;13.32;;;;;;;-3.92;100.00;98958.88;4981692;28;20082;-70
2022/01/11 04:08:54;;;;;;;31.30;14.05;;;;;;;-3.92;100.00;98967.38;4975115;28;20055;-71
2022/01/11 04:11:27;;;;;;;33.83;12.57;;;;;;;-4.00;100.00;98961.16;4976474;28;20051;-69
2022/01/11 04:13:57;;;;;;;30.10;12.25;;;;;;;-3.91;100.00;98966.56;4974968;28;20096;-69
2022/01/11 04:16:27;;;;;;;24.88;11.27;;;;;;;-3.82;100.00;98969.44;4978829;28;20586;-69
2022/01/11 04:18:58;;;;;;;27.77;13.15;;;;;;;-3.75;100.00;98967.13;4970680;28;20058;-69
2022/01/11 04:21:27;;;;;;;33.40;13.43;;;;;;;-3.60;100.00;98970.22;4979843;28;20098;-69
2022/01/11 04:23:56;;;;;;;26.27;11.27;;;-2.10;99.90;;;-3.69;100.00;98970.75;4970449;28;20070;-69
2022/01/11 04:26:24;;;;;;;32.00;12.15;;;-2.00;99.90;;;-3.60;100.00;98975.31;4978745;28;20058;-69
2022/01/11 04:28:52;;;;;;;27.83;12.40;;;;;;;-3.60;100.00;98971.09;4973381;28;20060;-69
2022/01/11 04:31:20;;;;;;;25.80;12.73;;;-2.10;99.90;;;-3.57;100.00;98980.47;4975222;28;20054;-70
2022/01/11 04:33:48;;;;;;;35.63;13.02;;;-2.00;99.90;;;-3.54;100.00;98975.50;4977902;28;20061;-69
2022/01/11 04:36:16;;;;;;;30.67;11.52;;;-2.00;99.90;;;-3.47;100.00;98979.97;4974299;28;20056;-70
2022/01/11 04:38:43;;;;;;;34.00;12.80;;;-2.00;99.90;;;-3.52;100.00;98990.81;4979347;28;20079;-70
2022/01/11 04:41:11;;;;;;;30.88;12.88;;;-2.00;99.90;;;-3.51;100.00;98988.31;4968980;28;20133;-69
2022/01/11 04:43:38;;;;;;;24.48;12.88;;;-2.00;99.90;;;-3.44;100.00;98990.28;4979324;28;20078;-69
2022/01/11 04:46:06;;;;;;;22.80;11.23;;;-1.90;99.90;;;-3.38;100.00;98987.94;4985906;28;20110;-70
2022/01/11 04:48:35;;;;;;;21.88;9.48;;;-1.90;99.90;;;-3.31;100.00;98994.09;4979087;28;20567;-69
2022/01/11 04:51:05;;;;;;;20.67;9.45;;;-1.80;99.90;;;-3.33;100.00;98993.19;4979733;28;20420;-69
2022/01/11 04:53:33;;;;;;;28.15;11.90;;;-1.80;99.90;;;-3.18;100.00;98987.78;4991530;28;20050;-69
2022/01/11 04:56:00;;;;;;;19.13;9.45;;;-1.80;99.90;;;-3.13;100.00;98996.41;4973298;28;20137;-69
2022/01/11 04:58:28;;;;;;;21.35;10.27;;;-1.80;99.90;;;-3.06;100.00;98988.19;4976879;28;20093;-70
2022/01/11 05:00:59;;;;;;;22.70;9.50;;;-1.80;99.90;;;-3.08;100.00;98992.38;4976457;28;20046;-69
2022/01/11 05:03:27;;;;;;;19.33;8.68;;;-1.70;99.90;;;-3.10;100.00;98991.44;4984880;28;20047;-69
2022/01/11 05:05:54;;;;;;;20.25;9.07;;;-1.80;99.90;;;-3.14;100.00;98993.84;4976532;28;20521;-69
2022/01/11 05:08:21;;;;;;;23.20;9.73;;;-1.70;99.90;;;-3.05;100.00;98995.00;4971582;28;20133;-69
2022/01/11 05:10:54;;;;;;;24.10;10.23;;;-1.70;99.90;;;-3.18;100.00;99000.47;4977126;28;20039;-69
2022/01/11 05:13:21;;;;;;;22.70;9.60;;;-1.70;99.90;;;-3.29;100.00;98999.22;4978344;28;20058;-69
2022/01/11 05:15:51;;;;;;;17.45;8.48;;;-1.60;99.90;;;-3.00;100.00;98997.69;4976705;28;20058;-69
2022/01/11 05:18:19;;;;;;;18.90;8.90;;;-1.60;99.90;;;-3.18;100.00;98998.78;4973836;28;20142;-69
2022/01/11 05:20:46;;;;;;;27.98;11.60;;;-1.60;99.90;;;-3.16;100.00;98996.31;4977355;28;20061;-70
2022/01/11 05:23:14;;;;;;;23.13;9.93;;;-1.60;99.90;;;-2.92;100.00;98998.81;4977685;28;20050;-70
2022/01/11 05:25:42;;;;;;;21.60;9.63;;;-1.50;99.90;;;-2.80;100.00;99001.78;4972055;28;20054;-70
2022/01/11 05:28:10;;;;;;;20.20;9.70;;;-1.40;99.90;;;-2.82;100.00;99007.63;4978927;28;20047;-69
2022/01/11 05:30:37;;;;;;;20.85;9.10;;;-1.30;99.90;;;-2.70;100.00;99002.94;4975538;28;20125;-70
2022/01/11 05:33:05;;;;;;;22.95;9.80;;;-1.30;99.90;;;-2.82;100.00;99005.94;4976305;28;20054;-69
2022/01/11 05:35:32;;;;;;;21.65;10.30;;;-1.20;99.90;;;-3.00;100.00;99005.31;4981168;28;20101;-69
2022/01/11 05:38:00;;;;;;;36.83;15.25;;;-1.20;99.90;;;-3.22;100.00;99008.78;4974315;28;20066;-69
2022/01/11 05:40:28;;;;;;;23.23;12.23;;;-1.30;99.90;;;-3.24;100.00;99015.47;4970209;28;20043;-69
2022/01/11 05:42:56;;;;;;;28.35;13.43;;;-1.30;99.90;;;-3.36;100.00;99015.91;4973557;28;20088;-69
2022/01/11 05:45:25;;;;;;;24.85;12.48;;;-1.30;99.90;;;-3.06;100.00;99015.25;4980515;28;20395;-70
2022/01/11 05:47:52;;;;;;;31.23;14.13;;;-1.30;99.90;;;-2.94;100.00;99013.16;4977594;28;20149;-69
2022/01/11 05:50:21;;;;;;;31.45;14.38;;;-1.30;99.90;;;-2.83;100.00;99014.38;4973440;28;20054;-70
2022/01/11 05:52:49;;;;;;;46.83;19.25;;;-1.30;99.90;;;-2.72;100.00;99017.25;5000215;28;20087;-69
2022/01/11 05:55:19;;;;;;;46.40;17.50;;;-1.20;99.90;;;-2.71;100.00;99026.63;4978932;28;20054;-70
2022/01/11 05:57:47;;;;;;;50.88;16.33;;;-1.10;99.90;;;-2.73;100.00;99020.63;4974463;28;20138;-69
2022/01/11 06:00:18;;;;;;;38.53;15.07;;;-1.10;99.90;;;-2.65;100.00;99023.41;4978305;28;20499;-70
2022/01/11 06:02:52;;;;;;;35.80;13.25;;;-1.00;99.90;;;-2.80;100.00;99028.88;4976296;28;20047;-69
2022/01/11 06:05:20;;;;;;;73.40;29.63;;;-1.00;99.90;;;-2.83;100.00;99036.38;4975202;28;20047;-70
2022/01/11 06:07:47;;;;;;;111.97;41.92;;;-1.00;99.90;;;-2.78;100.00;99035.72;4976131;28;20058;-70
2022/01/11 06:10:15;;;;;;;85.53;30.80;;;-1.10;99.90;;;-2.76;100.00;99041.72;4973175;28;20061;-69
2022/01/11 06:12:45;;;;;;;115.55;30.65;;;-1.00;99.90;;;-2.55;100.00;99043.25;4991668;28;20469;-69
2022/01/11 06:15:12;;;;;;;79.95;23.08;;;-1.00;99.90;;;-2.46;100.00;99043.56;4971323;28;20086;-69
2022/01/11 06:17:40;;;;;;;89.45;23.95;;;-1.00;99.90;;;-2.31;100.00;99036.41;4973892;28;20077;-69
2022/01/11 06:20:09;;;;;;;71.47;18.63;;;-0.90;99.90;;;-2.48;100.00;99036.69;4972965;28;20050;-69
2022/01/11 06:22:39;;;;;;;163.57;28.50;;;-0.90;99.90;;;-2.67;100.00;99040.28;4981583;28;20080;-69
2022/01/11 06:25:07;;;;;;;249.82;36.80;;;-0.90;99.90;;;-2.66;100.00;99039.50;4975125;28;20047;-70
2022/01/11 06:27:40;;;;;;;93.60;26.20;;;-0.90;99.90;;;-2.55;100.00;99045.81;4995104;28;20103;-69
2022/01/11 06:30:14;;;;;;;221.13;37.83;;;-0.90;99.90;;;-2.69;100.00;99045.34;4973186;28;20093;-69
2022/01/11 06:32:46;;;;;;;125.72;27.10;;;-1.00;99.90;;;-2.46;100.00;99047.75;4974854;28;20062;-69
2022/01/11 06:35:17;;;;;;;108.82;25.90;;;-0.90;99.90;;;-2.43;100.00;99046.19;4974346;28;20118;-69
2022/01/11 06:37:46;;;;;;;144.63;27.00;;;-1.00;99.90;;;-2.49;100.00;99034.94;4980142;28;20051;-69
2022/01/11 06:40:16;;;;;;;420.50;52.30;;;-0.90;99.90;;;-2.59;100.00;99042.28;4978062;28;20098;-69
2022/01/11 06:42:53;;;;;;;91.40;28.65;;;-0.90;99.90;;;-2.39;100.00;99042.09;4981215;28;20050;-70
2022/01/11 06:45:22;;;;;;;496.23;56.28;;;-0.90;99.90;;;-2.72;100.00;99044.38;4996104;28;20100;-70
2022/01/11 06:47:51;;;;;;;360.17;46.13;;;-0.90;99.90;;;-2.91;100.00;99041.19;4976829;28;20057;-69
2022/01/11 06:50:18;;;;;;;479.33;49.30;;;-0.90;99.90;;;-2.95;100.00;99052.06;4979580;28;20086;-71
2022/01/11 06:52:46;;;;;;;223.95;33.95;;;-0.90;99.90;;;-2.81;100.00;99050.00;4975139;28;20097;-69
2022/01/11 06:55:14;;;;;;;177.77;26.08;;;-0.90;99.90;;;-2.83;100.00;99051.63;4991294;28;20065;-69
2022/01/11 06:57:42;;;;;;;137.68;25.50;;;-1.00;99.90;;;-2.78;100.00;99045.03;4974501;28;20137;-70
2022/01/11 07:00:10;;;;;;;405.30;42.20;;;-1.10;99.90;;;-2.92;100.00;99056.38;4976497;28;20065;-70
2022/01/11 07:02:38;;;;;;;215.15;27.70;;;-1.10;99.90;;;-2.93;100.00;99045.38;4979428;28;20098;-69
2022/01/11 07:05:08;;;;;;;414.45;41.30;;;-1.10;99.90;;;-3.02;100.00;99050.97;4974418;28;20085;-70
2022/01/11 07:07:35;;;;;;;264.55;27.67;;;-1.10;99.90;;;-2.83;100.00;99056.69;4980825;28;20039;-70
2022/01/11 07:10:04;;;;;;;265.10;29.33;;;-1.20;99.90;;;-2.85;100.00;99055.78;4971863;28;20113;-70
2022/01/11 07:12:32;;;;;;;429.80;37.35;;;-1.20;99.90;;;-3.01;100.00;99064.53;4979337;28;20061;-69
2022/01/11 07:15:02;;;;;;;133.27;21.55;;;-1.10;99.90;;;-3.01;100.00;99062.00;4976866;28;20517;-70
2022/01/11 07:17:30;;;;;;;172.10;24.63;;;-1.10;99.90;;;-2.84;100.00;99062.59;4977322;28;20108;-70
2022/01/11 07:19:57;;;;;;;113.15;21.52;;;-1.10;99.90;;;-2.69;100.00;99062.25;4977351;28;20145;-69
2022/01/11 07:22:24;;;;;;;64.70;18.33;;;-1.20;99.90;;;-2.57;100.00;99057.59;4975533;28;20051;-69
2022/01/11 07:24:52;;;;;;;311.30;30.50;;;-1.10;99.90;;;-2.69;100.00;99067.34;4974884;28;20179;-69
2022/01/11 07:27:19;;;;;;;105.50;18.33;;;-1.10;99.90;;;-2.70;100.00;99070.69;4973444;28;20486;-69
2022/01/11 07:29:46;;;;;;;62.53;17.90;;;-1.10;99.90;;;-2.53;100.00;99067.06;4978981;28;20113;-70
2022/01/11 07:32:13;;;;;;;169.57;29.15;;;-1.10;99.90;;;-2.69;100.00;99072.41;4974224;28;20069;-69
2022/01/11 07:34:41;;;;;;;177.52;28.73;;;-1.10;99.90;;;-2.82;100.00;99078.78;4980284;28;20063;-70
2022/01/11 07:37:08;;;;;;;200.20;27.35;;;-1.10;99.90;;;-2.91;100.00;99089.47;4974041;28;20057;-69
2022/01/11 07:39:36;;;;;;;294.20;31.80;;;-1.20;99.90;;;-3.00;100.00;99091.69;4975274;28;20078;-69
2022/01/11 07:42:04;;;;;;;237.50;25.40;;;-1.20;99.90;;;-2.95;100.00;99088.50;4990437;28;20042;-69
2022/01/11 07:44:32;;;;;;;82.72;19.73;;;-1.20;99.90;;;-2.92;100.00;99102.13;4985013;28;20066;-69
2022/01/11 07:47:01;;;;;;;84.38;20.02;;;-1.20;99.90;;;-3.03;100.00;99109.38;4975784;28;20057;-69
2022/01/11 07:49:36;;;;;;;130.85;21.85;;;-1.20;99.90;;;-2.82;100.00;99102.50;4973916;28;20050;-70
2022/01/11 07:52:04;;;;;;;136.00;22.55;;;-1.30;99.90;;;-2.99;100.00;99104.47;4976443;28;20133;-70
2022/01/11 07:54:31;;;;;;;223.57;27.27;;;-1.30;99.90;;;-2.97;100.00;99109.56;4975823;28;20053;-69
2022/01/11 07:56:58;;;;;;;173.65;23.52;;;-1.40;99.90;;;-3.17;100.00;99109.75;4977079;28;20038;-70
2022/01/11 07:59:26;;;;;;;157.00;23.35;;;-1.50;99.90;;;-3.18;100.00;99112.22;4980723;28;20125;-70
2022/01/11 08:02:13;;;;;;;68.20;19.38;;;-1.50;99.90;;;-3.21;100.00;99122.28;4977395;28;20482;-69
2022/01/11 08:04:41;;;;;;;51.70;19.75;;;-1.60;99.90;;;-3.12;100.00;99129.34;4984823;28;20138;-70
2022/01/11 08:07:10;;;;;;;50.45;20.50;;;-1.60;99.90;;;-3.32;100.00;99132.03;4982658;28;20141;-69
2022/01/11 08:09:37;;;;;;;61.53;22.15;;;-1.60;99.90;;;-3.33;100.00;99132.84;4974678;28;20043;-70
2022/01/11 08:12:05;;;;;;;55.03;22.52;;;-1.70;99.90;;;-3.37;100.00;99131.00;4976976;28;20101;-71
2022/01/11 08:14:32;;;;;;;40.67;18.27;;;-1.80;99.90;;;-3.38;100.00;99130.09;4975709;28;20125;-70
2022/01/11 08:17:00;;;;;;;33.20;16.63;;;-1.70;99.90;;;-3.31;100.00;99120.19;4970879;28;20137;-69
2022/01/11 08:19:28;;;;;;;36.25;17.55;;;-1.70;99.90;;;-3.48;100.00;99133.13;4980969;28;20368;-71
2022/01/11 08:21:56;;;;;;;49.80;20.95;;;-1.80;99.90;;;-3.53;100.00;99132.09;4972312;28;20093;-69
2022/01/11 08:24:24;;;;;;;42.78;19.50;;;-1.90;99.90;;;-3.54;100.00;99129.47;4980088;28;20053;-69
2022/01/11 08:26:54;;;;;;;35.83;17.23;;;-1.90;99.90;;;-3.54;100.00;99135.41;4993307;28;20061;-69
2022/01/11 08:29:22;;;;;;;36.70;17.15;;;-1.80;99.90;;;-3.53;100.00;99129.53;4971169;28;20510;-69
2022/01/11 08:31:51;;;;;;;35.63;16.95;;;-1.80;99.90;;;-3.50;100.00;99132.19;4969294;28;20059;-68
2022/01/11 08:34:18;;;;;;;31.63;15.30;;;-1.80;99.90;;;-3.41;100.00;99137.59;4968794;28;20395;-69
2022/01/11 08:36:49;;;;;;;30.45;14.75;;;-1.80;99.90;;;-3.31;100.00;99137.97;4973547;28;20054;-69
2022/01/11 08:39:17;;;;;;;24.40;11.75;;;-1.70;99.90;;;-3.20;100.00;99141.75;4972077;28;20495;-69
2022/01/11 08:41:45;;;;;;;29.05;13.65;;;-1.70;99.90;;;-3.10;100.00;99148.94;4976194;28;20138;-69
2022/01/11 08:44:13;;;;;;;27.20;13.00;;;-1.60;99.90;;;-3.10;100.00;99141.31;4976093;28;20051;-69
2022/01/11 08:46:42;;;;;;;32.22;14.57;;;-1.60;99.90;;;-2.97;100.00;99140.06;4974750;28;20043;-69
2022/01/11 08:49:12;;;;;;;35.15;14.52;;;-1.60;99.90;;;-3.04;100.00;99141.50;4994867;28;20051;-69
2022/01/11 08:51:40;;;;;;;27.92;14.05;;;-1.50;99.90;;;-3.02;100.00;99144.97;4978215;28;20126;-69
2022/01/11 08:54:11;;;;;;;27.30;11.82;;;-1.60;99.90;;;-3.13;100.00;99142.84;4973694;28;20055;-70
2022/01/11 08:56:40;;;;;;;28.10;13.18;;;-1.60;99.90;;;-3.19;100.00;99146.91;4974278;28;20060;-69
2022/01/11 08:59:08;;;;;;;28.10;12.88;;;-1.50;99.90;;;-3.12;100.00;99149.66;4999023;28;20051;-69
2022/01/11 09:01:35;;;;;;;27.00;12.88;;;-1.50;99.90;;;-3.11;100.00;99148.88;4972873;28;20054;-68
2022/01/11 09:04:03;;;;;;;30.38;13.38;;;-1.40;99.90;;;-3.07;100.00;99148.16;4974284;28;20047;-69
2022/01/11 09:06:30;;;;;;;33.97;12.82;;;-1.40;99.90;;;-3.01;100.00;99148.38;4971578;28;20059;-69
2022/01/11 09:09:16;;;;;;;36.75;13.38;;;-1.40;99.90;;;-2.89;100.00;99148.84;4976144;28;20210;-69
2022/01/11 09:11:45;;;;;;;28.63;12.90;;;-1.30;99.90;;;-2.81;100.00;99155.03;4990576;28;20046;-69
2022/01/11 09:14:12;;;;;;;34.80;15.35;;;-1.30;99.90;;;-2.77;100.00;99154.34;4975397;28;20046;-69
2022/01/11 09:16:40;;;;;;;30.15;14.00;;;-1.20;99.90;;;-2.75;100.00;99147.66;4971837;28;20459;-69
2022/01/11 09:19:14;;;;;;;26.75;12.65;;;-1.20;99.90;;;-2.63;100.00;99149.75;4977575;28;20128;-69
2022/01/11 09:21:42;;;;;;;29.70;12.98;;;-1.10;99.90;;;-2.59;100.00;99149.03;4975685;28;20121;-70
2022/01/11 09:24:12;;;;;;;33.42;12.93;;;-1.00;99.90;;;-2.38;100.00;99154.00;4990987;28;20509;-69
2022/01/11 09:26:40;;;;;;;32.35;13.65;;;-0.90;99.90;;;-2.17;100.00;99155.53;4975837;28;20051;-69
2022/01/11 09:29:09;;;;;;;37.90;15.23;;;-0.70;99.90;;;-1.99;100.00;99155.28;4976742;28;20407;-69
2022/01/11 09:31:36;;;;;;;35.45;15.40;;;-0.50;99.90;;;-1.74;100.00;99154.38;4998545;28;20053;-69
2022/01/11 09:34:04;;;;;;;42.88;16.42;;;-0.20;99.90;;;-1.47;100.00;99155.25;4975745;28;20078;-68
2022/01/11 09:36:31;;;;;;;37.83;15.93;;;0.00;99.90;;;-1.34;100.00;99159.03;4979040;28;20431;-68
2022/01/11 09:38:59;;;;;;;33.45;13.82;;;0.20;99.90;;;-1.17;100.00;99159.53;4978369;28;20046;-68
2022/01/11 09:41:29;;;;;;;43.35;15.30;;;0.40;99.90;;;-0.98;100.00;99166.03;4981223;28;20058;-69
2022/01/11 09:43:58;;;;;;;29.33;13.15;;;0.60;99.90;;;-0.96;100.00;99155.88;4976487;28;20479;-69
2022/01/11 09:46:25;;;;;;;28.25;11.63;;;0.70;99.90;;;-0.96;100.00;99161.81;4978531;28;20078;-69
2022/01/11 09:48:53;;;;;;;25.60;11.98;;;0.90;99.90;;;-0.78;100.00;99165.72;4990690;28;20437;-69
2022/01/11 09:51:22;;;;;;;24.55;11.65;;;1.00;99.90;;;-0.68;100.00;99178.78;4990570;28;20069;-70
2022/01/11 09:53:49;;;;;;;24.05;11.77;;;1.10;99.90;;;-0.74;100.00;99165.84;4977452;28;20078;-70
2022/01/11 09:56:17;;;;;;;32.78;13.57;;;1.20;99.90;;;-0.59;100.00;99177.28;4975652;28;20368;-69
2022/01/11 09:58:45;;;;;;;27.52;12.07;;;1.20;99.90;;;-0.62;100.00;99167.88;4993678;28;20038;-69
2022/01/11 10:01:13;;;;;;;26.42;12.45;;;1.20;99.90;;;-0.41;100.00;99167.63;4974488;28;20049;-69
2022/01/11 10:04:18;;;;;;;27.75;11.65;;;1.30;99.90;;;-0.38;100.00;99162.59;4976500;28;20049;-69
2022/01/11 10:06:55;;;;;;;26.80;11.82;;;1.40;99.90;;;-0.35;100.00;99166.91;4934211;29;20420;-69
2022/01/11 10:09:24;;;;;;;23.75;10.27;;;1.40;99.90;;;-0.51;100.00;99166.47;4971886;28;20057;-69
2022/01/11 10:11:57;;;;;;;23.27;11.35;;;1.40;99.90;;;-0.53;100.00;99168.13;4986934;28;20172;-69
2022/01/11 10:14:35;;;;;;;26.98;11.32;;;1.40;99.90;;;-0.56;100.00;99168.06;4978167;28;20201;-69